首页
METAR-TAF:

METAR-TAF

机场 :

Daniel Field Airport

奥古斯塔, 喬治亞, 美国

纬度: 33-28-01N, 经度: 082-02-19W, 海拔: 128米

当前天气观测

该预报发布于1小时和1分钟前的14:53 UTC
风速10节,风向西北
温度 7°C
湿度 57%
气压 1020 hPa
能見度: 16.1公里
天空无云

METAR: KDNL 261453Z AUTO 32010KT 10SM CLR 07/M01 A3011 RMK AO2 SLP195 T00671006 51020

时间: 10:54 (15:54 UTC)

预报

该预报发布于36分钟前的15:18 UTC
预报有效从26日的 15点(UTC)到 27日的 12点(UTC)
风速8节,风向西转西北
能見度: 10公里
散云层高于25000英尺
从 27日的 0500点(UTC)
风速4节,风向多变
能見度: 10公里
多云层高于5000英尺
阴天层高于12000英尺
附近有阵雨

TAF: KDNL 261518Z 2615/2712 30008KT P6SM SCT250 FM270500 VRB04KT P6SM VCSH BKN050 OVC120

超过4000个机场的气象观测和天气预报(METAR&TAF报告)。

可查询的气象台以黄色和红色小点在地图上表示。

将鼠标移到小点上方,可查看气象台名称。

然后点击查看天气观测和预报。

如需切换地图:点击带黑十字的绿色按钮放大地图;点击带横线的绿色按钮缩小地图;或者点击绿色箭头查看邻近地区的地图。


METAR-TAF: